createdAt,value
2022-11-13T00:02:12.138Z,23.49
2022-11-13T00:07:34.932Z,23.51
2022-11-13T00:12:56.231Z,23.50
2022-11-13T00:18:17.572Z,23.49
2022-11-13T00:23:40.645Z,23.53
2022-11-13T00:29:03.497Z,23.52
2022-11-13T00:34:46.450Z,23.49
2022-11-13T00:40:09.272Z,23.48
2022-11-13T00:45:30.592Z,23.45
2022-11-13T00:50:52.214Z,23.49
2022-11-13T00:56:14.734Z,23.50
2022-11-13T01:01:36.876Z,23.48
2022-11-13T01:06:58.380Z,23.48
2022-11-13T01:12:21.123Z,23.49
2022-11-13T01:17:42.587Z,23.49
2022-11-13T01:23:04.836Z,23.49
2022-11-13T01:28:27.752Z,23.50
2022-11-13T01:33:50.507Z,23.49
2022-11-13T01:39:12.304Z,23.49
2022-11-13T01:44:50.151Z,23.47
2022-11-13T01:50:15.507Z,23.49
2022-11-13T01:55:37.284Z,23.41
2022-11-13T02:01:02.820Z,23.35
2022-11-13T02:06:26.541Z,23.28
2022-11-13T02:11:48.679Z,23.19
2022-11-13T02:17:16.617Z,23.12
2022-11-13T02:22:45.944Z,23.06
2022-11-13T02:28:08.670Z,22.94
2022-11-13T02:33:33.273Z,22.83
2022-11-13T02:38:57.058Z,22.73
2022-11-13T02:44:19.641Z,22.62
2022-11-13T02:49:41.181Z,22.45
2022-11-13T02:55:02.732Z,22.32
2022-11-13T03:00:25.855Z,22.22
2022-11-13T03:05:49.974Z,22.14
2022-11-13T03:11:12.676Z,22.04
2022-11-13T03:16:35.952Z,21.94
2022-11-13T03:21:57.410Z,21.89
2022-11-13T03:27:18.850Z,21.82
2022-11-13T03:32:41.693Z,21.77
2022-11-13T03:38:03.483Z,21.68
2022-11-13T03:43:25.077Z,21.61
2022-11-13T03:48:47.603Z,21.52
2022-11-13T03:54:09.224Z,21.45
2022-11-13T03:59:30.776Z,21.39
2022-11-13T04:04:53.970Z,21.36
2022-11-13T04:10:15.399Z,21.29
2022-11-13T04:15:37.008Z,21.25
2022-11-13T04:21:01.926Z,21.19
2022-11-13T04:26:23.422Z,21.13
2022-11-13T04:31:44.896Z,21.09
2022-11-13T04:37:07.698Z,21.04
2022-11-13T04:42:46.497Z,21.00
2022-11-13T04:48:08.196Z,20.95
2022-11-13T04:53:30.818Z,20.91
2022-11-13T04:58:52.643Z,20.87
2022-11-13T05:04:15.166Z,20.81
2022-11-13T05:09:37.904Z,20.80
2022-11-13T05:14:59.335Z,20.76
2022-11-13T05:20:20.944Z,20.72
2022-11-13T05:25:43.621Z,20.71
2022-11-13T05:31:07.101Z,20.66
2022-11-13T05:36:28.559Z,20.64
2022-11-13T05:41:51.313Z,20.59
2022-11-13T05:47:12.845Z,20.54
2022-11-13T05:52:34.443Z,20.54
2022-11-13T05:57:59.539Z,20.48
2022-11-13T06:03:20.952Z,20.46
2022-11-13T06:08:42.892Z,20.45
2022-11-13T06:14:05.719Z,20.42
2022-11-13T06:19:27.216Z,20.36
2022-11-13T06:24:48.839Z,20.34
2022-11-13T06:30:13.485Z,20.33
2022-11-13T06:35:35.142Z,20.31
2022-11-13T06:40:58.054Z,20.28
2022-11-13T06:46:23.348Z,20.27
2022-11-13T06:51:44.790Z,20.25
2022-11-13T06:57:06.313Z,20.21
2022-11-13T07:02:29.133Z,20.22
2022-11-13T07:07:50.659Z,20.19
2022-11-13T07:13:12.141Z,20.18
2022-11-13T07:18:35.503Z,20.17
2022-11-13T07:23:56.554Z,20.13
2022-11-13T07:29:18.051Z,20.10
2022-11-13T07:34:40.890Z,20.10
2022-11-13T07:40:02.395Z,20.07
2022-11-13T07:45:23.709Z,20.07
2022-11-13T07:50:46.199Z,20.08
2022-11-13T07:56:08.473Z,20.05
2022-11-13T08:01:29.919Z,20.07
2022-11-13T08:06:53.074Z,20.03
2022-11-13T08:12:14.409Z,20.02
2022-11-13T08:17:35.785Z,20.00
2022-11-13T08:23:00.225Z,20.01
2022-11-13T08:28:21.640Z,20.00
2022-11-13T08:33:43.953Z,20.01
2022-11-13T08:39:06.715Z,19.59
2022-11-13T08:44:27.861Z,18.84
2022-11-13T08:49:49.360Z,18.67
2022-11-13T08:55:12.122Z,19.24
2022-11-13T09:00:33.843Z,19.43
2022-11-13T09:05:55.138Z,19.56
2022-11-13T09:11:18.307Z,19.64
2022-11-13T09:16:39.552Z,19.69
2022-11-13T09:22:01.135Z,19.75
2022-11-13T09:27:23.946Z,19.79
2022-11-13T09:32:45.353Z,19.83
2022-11-13T09:38:11.478Z,19.88
2022-11-13T09:43:40.286Z,19.89
2022-11-13T09:49:05.498Z,19.91
2022-11-13T09:54:27.147Z,19.93
2022-11-13T09:59:56.592Z,19.94
2022-11-13T10:05:24.981Z,19.95
2022-11-13T10:10:55.582Z,19.95
2022-11-13T10:16:32.834Z,19.97
2022-11-13T10:22:19.597Z,19.98
2022-11-13T10:27:43.599Z,20.00
2022-11-13T10:33:09.151Z,20.01
2022-11-13T10:38:36.308Z,20.02
2022-11-13T10:44:03.782Z,20.03
2022-11-13T10:49:28.975Z,20.01
2022-11-13T10:54:51.104Z,19.81
2022-11-13T11:00:24.148Z,19.78
2022-11-13T11:06:01.285Z,19.74
2022-11-13T11:11:40.334Z,19.78
2022-11-13T11:17:05.313Z,19.78
2022-11-13T11:22:32.912Z,19.76
2022-11-13T11:28:01.860Z,19.75
2022-11-13T11:33:31.627Z,19.76
2022-11-13T11:39:01.756Z,19.75
2022-11-13T11:44:30.583Z,19.79
2022-11-13T11:49:51.851Z,19.85
2022-11-13T11:55:36.212Z,19.93
2022-11-13T12:01:05.608Z,19.94
2022-11-13T12:06:40.970Z,19.92
2022-11-13T12:12:14.364Z,19.90
2022-11-13T12:17:49.462Z,19.97
2022-11-13T12:23:25.851Z,20.36
2022-11-13T12:28:55.067Z,20.68
2022-11-13T12:34:26.470Z,20.74
2022-11-13T12:39:56.840Z,20.75
2022-11-13T12:45:27.431Z,20.79
2022-11-13T12:50:59.276Z,20.83
2022-11-13T12:56:32.573Z,20.89
2022-11-13T13:02:03.852Z,20.91
2022-11-13T13:07:48.540Z,20.92
2022-11-13T13:13:24.260Z,20.92
2022-11-13T13:18:47.765Z,21.03
2022-11-13T13:24:11.405Z,21.12
2022-11-13T13:29:34.844Z,21.06
2022-11-13T13:35:05.363Z,21.06
2022-11-13T13:40:37.086Z,21.02
2022-11-13T13:46:07.272Z,21.00
2022-11-13T13:51:35.352Z,21.02
2022-11-13T13:56:59.330Z,21.03
2022-11-13T14:02:23.124Z,20.98
2022-11-13T14:07:47.980Z,20.96
2022-11-13T14:13:13.470Z,20.89
2022-11-13T14:18:36.274Z,20.84
2022-11-13T14:24:01.388Z,20.73
2022-11-13T14:29:33.021Z,20.66
2022-11-13T14:34:58.441Z,20.60
2022-11-13T14:40:26.938Z,20.56
2022-11-13T14:45:57.479Z,20.52
2022-11-13T14:51:25.292Z,20.50
2022-11-13T14:56:48.165Z,20.50
2022-11-13T15:02:12.108Z,20.50
2022-11-13T15:07:35.310Z,20.47
2022-11-13T15:12:58.236Z,20.48
2022-11-13T15:18:20.887Z,19.80
2022-11-13T15:23:42.468Z,19.71
2022-11-13T15:29:06.473Z,19.97
2022-11-13T15:34:28.149Z,19.99
2022-11-13T15:39:49.477Z,19.99
2022-11-13T15:45:17.088Z,20.00
2022-11-13T15:50:38.268Z,20.00
2022-11-13T15:56:02.991Z,20.00
2022-11-13T16:01:25.793Z,20.00
2022-11-13T16:06:47.640Z,19.98
2022-11-13T16:12:10.737Z,19.97
2022-11-13T16:17:40.388Z,19.98
2022-11-13T16:23:01.612Z,20.14
2022-11-13T16:28:23.284Z,20.31
2022-11-13T16:33:46.127Z,20.43
2022-11-13T16:39:13.311Z,20.55
2022-11-13T16:44:34.841Z,20.63
2022-11-13T16:49:58.422Z,20.71
2022-11-13T16:55:19.613Z,20.77
2022-11-13T17:00:41.210Z,20.84
2022-11-13T17:06:03.869Z,20.92
2022-11-13T17:11:26.921Z,20.99
2022-11-13T17:16:48.402Z,21.06
2022-11-13T17:22:12.166Z,21.13
2022-11-13T17:27:33.628Z,21.23
2022-11-13T17:32:55.199Z,21.31
2022-11-13T17:38:18.268Z,21.35
2022-11-13T17:43:41.224Z,21.40
2022-11-13T17:49:02.501Z,21.45
2022-11-13T17:54:25.758Z,21.51
2022-11-13T17:59:47.293Z,21.59
2022-11-13T18:05:09.869Z,21.65
2022-11-13T18:10:32.331Z,21.72
2022-11-13T18:15:54.216Z,21.75
2022-11-13T18:21:22.792Z,21.79
2022-11-13T18:26:46.574Z,21.84
2022-11-13T18:32:07.754Z,21.88
2022-11-13T18:37:30.280Z,21.92
2022-11-13T18:42:53.127Z,21.97
2022-11-13T18:48:14.396Z,21.99
2022-11-13T18:53:37.565Z,22.02
2022-11-13T18:59:01.475Z,22.07
2022-11-13T19:04:23.934Z,22.10
2022-11-13T19:09:49.950Z,22.14
2022-11-13T19:15:12.862Z,22.19
2022-11-13T19:20:34.289Z,22.21
2022-11-13T19:25:55.781Z,22.25
2022-11-13T19:31:21.147Z,22.28
2022-11-13T19:36:45.011Z,22.29
2022-11-13T19:42:06.909Z,22.33
2022-11-13T19:47:29.827Z,22.35
2022-11-13T19:52:51.503Z,22.39
2022-11-13T19:58:12.984Z,22.41
2022-11-13T20:03:35.842Z,22.43
2022-11-13T20:08:58.647Z,22.47
2022-11-13T20:14:20.089Z,22.46
2022-11-13T20:19:43.371Z,22.47
2022-11-13T20:25:04.846Z,22.47
2022-11-13T20:30:26.010Z,22.50
2022-11-13T20:35:55.527Z,22.49
2022-11-13T20:41:17.190Z,22.52
2022-11-13T20:46:39.067Z,22.54
2022-11-13T20:52:02.014Z,22.54
2022-11-13T20:57:23.725Z,22.55
2022-11-13T21:02:45.221Z,22.56
2022-11-13T21:08:11.039Z,22.55
2022-11-13T21:13:32.548Z,22.59
2022-11-13T21:18:55.376Z,22.58
2022-11-13T21:24:18.352Z,22.60
2022-11-13T21:29:39.748Z,22.59
2022-11-13T21:35:01.291Z,22.62
2022-11-13T21:40:24.252Z,22.61
2022-11-13T21:45:45.854Z,22.61
2022-11-13T21:51:07.500Z,22.64
2022-11-13T21:56:33.156Z,22.66
2022-11-13T22:01:54.371Z,22.68
2022-11-13T22:07:15.939Z,22.67
2022-11-13T22:12:38.789Z,22.64
2022-11-13T22:18:00.187Z,22.63
2022-11-13T22:23:22.813Z,22.58
2022-11-13T22:28:46.985Z,22.53
2022-11-13T22:34:09.439Z,22.48
2022-11-13T22:39:30.737Z,22.41
2022-11-13T22:44:56.319Z,22.38
2022-11-13T22:50:18.393Z,22.34
2022-11-13T22:55:39.762Z,22.29
2022-11-13T23:01:10.370Z,22.27
2022-11-13T23:06:33.736Z,22.23
2022-11-13T23:11:55.730Z,22.14
2022-11-13T23:17:18.650Z,22.10
2022-11-13T23:22:40.217Z,22.05
2022-11-13T23:28:01.488Z,21.96
2022-11-13T23:33:24.638Z,21.87
2022-11-13T23:38:46.536Z,21.79
2022-11-13T23:44:09.635Z,21.72
2022-11-13T23:49:32.879Z,21.63
2022-11-13T23:54:54.364Z,21.55
